Time;durP1;ratioP1;P1;durP2;ratioP2;P2;SDS_P1;SDS_P2;PMS_P1;PMS_P2;Temp;Humidity;BMP_temperature;BMP_pressure;BME280_temperature;BME280_humidity;BME280_pressure;Samples;Min_cycle;Max_cycle;Signal;HPM_P1;HPM_P2
2021/12/28 00:00:31;;;;;;;555.50;507.30;;;8.40;99.90;;;;;;5032803;28;20583;-79
2021/12/28 00:02:58;;;;;;;556.90;508.10;;;8.40;99.90;;;;;;5062187;28;20202;-80
2021/12/28 00:05:26;;;;;;;558.53;509.27;;;8.40;99.90;;;;;;5065624;28;20196;-80
2021/12/28 00:07:52;;;;;;;562.07;513.27;;;8.40;99.90;;;;;;5065052;28;20185;-79
2021/12/28 00:10:19;;;;;;;558.17;509.50;;;8.40;99.90;;;;;;5082283;28;20192;-80
2021/12/28 00:12:46;;;;;;;586.03;535.03;;;8.40;99.90;;;;;;5063362;28;20206;-79
2021/12/28 00:15:46;;;;;;;592.30;540.77;;;8.40;99.90;;;;;;5064442;28;20177;-80
2021/12/28 00:18:04;;;;;;;600.50;549.23;;;8.40;99.90;;;;;;5080219;28;20200;-80
2021/12/28 00:20:33;;;;;;;593.57;542.70;;;8.40;99.90;;;;;;5032295;28;20200;-80
2021/12/28 00:23:00;;;;;;;592.27;541.20;;;8.40;99.90;;;;;;5063214;28;20205;-78
2021/12/28 00:25:26;;;;;;;590.77;540.47;;;8.40;99.90;;;;;;5043258;28;20213;-78
2021/12/28 00:27:52;;;;;;;591.30;540.47;;;8.40;99.90;;;;;;5058487;28;20307;-79
2021/12/28 00:30:20;;;;;;;585.93;535.03;;;8.30;99.90;;;;;;5042586;28;20186;-80
2021/12/28 00:32:52;;;;;;;591.00;540.03;;;8.40;99.90;;;;;;5060351;28;20647;-79
2021/12/28 00:35:22;;;;;;;593.60;543.10;;;8.40;99.90;;;;;;5028218;28;20218;-79
2021/12/28 00:37:48;;;;;;;601.00;549.97;;;8.40;99.90;;;;;;5059122;28;20277;-79
2021/12/28 00:40:16;;;;;;;593.87;542.83;;;8.40;99.90;;;;;;5043205;28;20250;-79
2021/12/28 00:42:42;;;;;;;595.30;544.40;;;8.40;99.90;;;;;;5062808;28;20210;-79
2021/12/28 00:45:09;;;;;;;597.63;546.17;;;8.40;99.90;;;;;;5063613;28;20228;-79
2021/12/28 00:47:34;;;;;;;589.50;538.87;;;8.40;99.90;;;;;;5061920;28;20189;-79
2021/12/28 00:50:01;;;;;;;592.60;541.83;;;8.40;99.90;;;;;;5060857;28;20273;-79
2021/12/28 00:52:26;;;;;;;598.43;547.73;;;8.40;99.90;;;;;;5060456;28;20186;-78
2021/12/28 00:54:52;;;;;;;608.07;556.60;;;8.40;99.90;;;;;;5029339;28;20206;-80
2021/12/28 00:57:18;;;;;;;604.03;553.13;;;8.50;99.90;;;;;;5059550;28;20214;-78
2021/12/28 00:59:43;;;;;;;602.40;550.93;;;8.50;99.90;;;;;;5027741;28;20303;-79
2021/12/28 01:02:09;;;;;;;603.67;552.63;;;8.50;99.90;;;;;;5053705;28;20214;-79
2021/12/28 01:04:35;;;;;;;599.30;548.07;;;8.50;99.90;;;;;;5023006;28;20635;-79
2021/12/28 01:07:01;;;;;;;593.77;542.53;;;8.50;99.90;;;;;;5044352;28;20278;-79
2021/12/28 01:09:31;;;;;;;590.07;539.23;;;8.50;99.90;;;;;;5063969;28;20210;-79
2021/12/28 01:12:03;;;;;;;587.80;537.97;;;8.50;99.90;;;;;;5043400;28;20631;-80
2021/12/28 01:14:29;;;;;;;588.97;538.63;;;8.50;99.90;;;;;;5058711;28;20186;-80
2021/12/28 01:16:55;;;;;;;590.40;539.03;;;8.50;99.90;;;;;;5061324;28;20227;-79
2021/12/28 01:19:21;;;;;;;593.13;541.57;;;8.50;99.90;;;;;;5059641;28;20217;-80
2021/12/28 01:21:47;;;;;;;600.33;549.57;;;8.50;99.90;;;;;;5043625;28;20210;-79
2021/12/28 01:24:13;;;;;;;602.73;551.03;;;8.60;99.90;;;;;;5059953;28;20524;-79
2021/12/28 01:26:39;;;;;;;601.77;550.90;;;8.60;99.90;;;;;;5059601;28;20221;-78
2021/12/28 01:29:05;;;;;;;605.20;553.23;;;8.60;99.90;;;;;;5060562;28;20860;-79
2021/12/28 01:31:31;;;;;;;602.23;551.47;;;8.60;99.90;;;;;;5027015;28;20193;-79
2021/12/28 01:33:57;;;;;;;601.60;550.23;;;8.60;99.90;;;;;;5058318;28;20195;-79
2021/12/28 01:36:23;;;;;;;596.30;545.17;;;8.70;99.90;;;;;;5059669;28;20193;-80
2021/12/28 01:38:49;;;;;;;595.97;545.33;;;8.70;99.90;;;;;;5058049;28;20276;-79
2021/12/28 01:41:15;;;;;;;593.60;542.83;;;8.70;99.90;;;;;;5057265;28;20277;-78
2021/12/28 01:43:43;;;;;;;595.17;544.13;;;8.60;99.90;;;;;;5059282;28;20283;-80
2021/12/28 01:46:09;;;;;;;591.33;540.53;;;8.60;99.90;;;;;;5044565;28;20783;-79
2021/12/28 01:48:42;;;;;;;591.87;541.00;;;8.70;99.90;;;;;;5039354;28;20198;-79
2021/12/28 01:51:17;;;;;;;592.23;541.17;;;8.60;99.90;;;;;;5062186;28;20626;-78
2021/12/28 01:53:44;;;;;;;583.03;532.80;;;8.60;99.90;;;;;;5063789;28;20190;-79
2021/12/28 01:56:13;;;;;;;579.37;528.63;;;8.60;99.90;;;;;;5058606;28;20178;-80
2021/12/28 01:58:40;;;;;;;581.87;531.27;;;8.60;99.90;;;;;;5059155;28;20547;-79
2021/12/28 02:01:07;;;;;;;573.37;523.67;;;8.60;99.90;;;;;;5041257;28;20238;-81
2021/12/28 02:03:34;;;;;;;574.50;525.07;;;8.60;99.90;;;;;;5053999;28;20517;-80
2021/12/28 02:06:00;;;;;;;572.70;523.43;;;8.60;99.90;;;;;;5039451;28;20194;-80
2021/12/28 02:08:26;;;;;;;573.30;524.33;;;8.60;99.90;;;;;;5051184;28;20187;-81
2021/12/28 02:10:54;;;;;;;566.80;517.37;;;8.50;99.90;;;;;;5056056;28;20205;-82
2021/12/28 02:13:22;;;;;;;578.40;527.63;;;8.50;99.90;;;;;;5054677;28;20296;-80
2021/12/28 02:15:48;;;;;;;571.77;522.63;;;8.50;99.90;;;;;;5040011;28;20190;-80
2021/12/28 02:18:17;;;;;;;573.47;524.83;;;8.60;99.90;;;;;;5037779;28;20205;-79
2021/12/28 02:20:44;;;;;;;570.60;521.80;;;8.60;99.90;;;;;;5059358;28;20180;-81
2021/12/28 02:23:10;;;;;;;577.57;528.67;;;8.60;99.90;;;;;;5053964;28;20289;-81
2021/12/28 02:25:36;;;;;;;578.73;528.93;;;8.60;99.90;;;;;;5039979;28;20218;-80
2021/12/28 02:28:08;;;;;;;572.20;523.97;;;8.70;99.90;;;;;;5056730;28;20767;-81
2021/12/28 02:30:36;;;;;;;572.23;524.23;;;8.70;99.90;;;;;;5041667;28;20191;-80
2021/12/28 02:33:03;;;;;;;571.13;522.20;;;8.70;99.90;;;;;;5026876;28;20647;-80
2021/12/28 02:35:29;;;;;;;569.83;521.77;;;8.70;99.90;;;;;;5025853;28;20193;-80
2021/12/28 02:37:55;;;;;;;558.33;510.63;;;8.70;99.90;;;;;;5074883;28;20303;-81
2021/12/28 02:40:24;;;;;;;558.73;511.10;;;8.70;99.90;;;;;;5025557;28;20315;-81
2021/12/28 02:42:51;;;;;;;553.27;505.77;;;8.70;99.90;;;;;;5059359;28;20628;-81
2021/12/28 02:45:23;;;;;;;548.00;500.20;;;8.70;99.90;;;;;;5025972;28;20217;-81
2021/12/28 02:47:51;;;;;;;541.10;496.00;;;8.70;99.90;;;;;;5073791;28;20277;-80
2021/12/28 02:50:29;;;;;;;537.87;493.03;;;8.70;99.90;;;;;;5057301;28;20217;-80
2021/12/28 02:52:55;;;;;;;540.47;493.10;;;8.70;99.90;;;;;;5074048;28;20250;-81
2021/12/28 02:55:25;;;;;;;544.23;497.30;;;8.80;99.90;;;;;;5040308;28;20217;-81
2021/12/28 02:57:56;;;;;;;540.20;493.70;;;8.80;99.90;;;;;;5074086;28;20203;-80
2021/12/28 03:00:45;;;;;;;540.60;494.33;;;8.80;99.90;;;;;;5059914;28;20185;-79
2021/12/28 03:03:15;;;;;;;536.07;490.13;;;8.80;99.90;;;;;;5057303;28;20197;-81
2021/12/28 03:05:43;;;;;;;528.63;483.60;;;8.80;99.90;;;;;;5058507;28;20182;-81
2021/12/28 03:08:10;;;;;;;534.53;488.00;;;8.80;99.90;;;;;;5060433;28;20512;-81
2021/12/28 03:10:37;;;;;;;569.97;521.70;;;8.80;99.90;;;;;;5059501;28;20177;-81
2021/12/28 03:13:04;;;;;;;619.07;567.43;;;8.80;99.90;;;;;;5059560;28;20204;-81
2021/12/28 03:15:30;;;;;;;622.43;570.30;;;8.80;99.90;;;;;;5025884;28;20678;-81
2021/12/28 03:17:55;;;;;;;637.20;584.20;;;8.80;99.90;;;;;;5040066;28;20402;-79
2021/12/28 03:20:21;;;;;;;622.30;570.40;;;8.80;99.90;;;;;;5027255;28;20557;-82
2021/12/28 03:22:47;;;;;;;619.30;567.07;;;8.80;99.90;;;;;;5058355;28;20205;-81
2021/12/28 03:25:13;;;;;;;627.20;573.77;;;8.80;99.90;;;;;;5055828;28;20646;-82
2021/12/28 03:27:39;;;;;;;629.90;577.70;;;8.80;99.90;;;;;;5038973;28;20221;-81
2021/12/28 03:30:08;;;;;;;649.20;594.13;;;8.80;99.90;;;;;;5037366;28;20219;-81
2021/12/28 03:32:34;;;;;;;655.13;600.00;;;8.80;99.90;;;;;;5055442;28;20259;-79
2021/12/28 03:35:03;;;;;;;654.17;599.30;;;8.80;99.90;;;;;;5023828;28;20199;-80
2021/12/28 03:37:30;;;;;;;649.77;595.13;;;8.90;99.90;;;;;;5056410;28;20213;-81
2021/12/28 03:39:56;;;;;;;653.50;597.80;;;8.90;99.90;;;;;;5057166;28;20190;-81
2021/12/28 03:42:22;;;;;;;650.27;594.53;;;8.90;99.90;;;;;;5059244;28;20223;-80
2021/12/28 03:44:48;;;;;;;649.33;594.33;;;8.90;99.90;;;;;;5057049;28;20538;-80
2021/12/28 03:47:13;;;;;;;659.60;604.73;;;8.90;99.90;;;;;;5042498;28;20280;-81
2021/12/28 03:49:39;;;;;;;661.37;605.70;;;8.90;99.90;;;;;;5041151;28;20310;-81
2021/12/28 03:52:06;;;;;;;659.77;604.63;;;8.90;99.90;;;;;;5059918;28;20326;-81
2021/12/28 03:54:33;;;;;;;662.00;607.03;;;8.90;99.90;;;;;;5077525;28;20177;-81
2021/12/28 03:56:59;;;;;;;657.77;602.57;;;8.90;99.90;;;;;;5041468;28;20201;-81
2021/12/28 03:59:25;;;;;;;663.17;607.57;;;9.00;99.90;;;;;;5039705;28;20185;-81
2021/12/28 04:01:50;;;;;;;660.30;604.87;;;9.00;99.90;;;;;;5053964;28;20225;-80
2021/12/28 04:04:16;;;;;;;659.73;605.30;;;9.00;99.90;;;;;;5023909;28;20583;-80
2021/12/28 04:06:42;;;;;;;657.73;603.07;;;9.00;99.90;;;;;;5058062;28;20177;-81
2021/12/28 04:09:11;;;;;;;654.97;600.37;;;9.00;99.90;;;;;;5059316;28;20246;-81
2021/12/28 04:11:36;;;;;;;654.40;600.00;;;9.00;99.90;;;;;;5059018;28;20228;-81
2021/12/28 04:14:05;;;;;;;659.33;604.80;;;9.00;99.90;;;;;;5059698;28;20198;-81
2021/12/28 04:16:33;;;;;;;659.60;606.20;;;9.10;99.90;;;;;;5060047;28;20189;-80
2021/12/28 04:19:00;;;;;;;659.63;604.50;;;9.10;99.90;;;;;;5031453;28;20788;-81
2021/12/28 04:21:25;;;;;;;649.27;595.63;;;9.10;99.90;;;;;;5063362;28;20181;-81
2021/12/28 04:23:52;;;;;;;654.57;600.07;;;9.10;99.90;;;;;;5026049;28;20744;-80
2021/12/28 04:26:18;;;;;;;649.33;595.70;;;9.10;99.90;;;;;;5077238;28;20585;-80
2021/12/28 04:28:44;;;;;;;623.10;571.50;;;9.10;99.90;;;;;;5078708;28;20237;-80
2021/12/28 04:31:11;;;;;;;613.70;563.17;;;9.20;99.90;;;;;;5057347;28;20315;-81
2021/12/28 04:33:38;;;;;;;607.63;557.23;;;9.20;99.90;;;;;;5059157;28;20232;-81
2021/12/28 04:36:15;;;;;;;618.57;567.20;;;9.20;99.90;;;;;;5076852;28;20193;-81
2021/12/28 04:38:43;;;;;;;622.63;570.10;;;9.20;99.90;;;;;;5077035;28;20177;-80
2021/12/28 04:41:10;;;;;;;634.13;581.23;;;9.30;99.90;;;;;;5061210;28;20177;-80
2021/12/28 04:43:37;;;;;;;627.73;575.87;;;9.30;99.90;;;;;;5043374;28;20696;-82
2021/12/28 04:46:04;;;;;;;632.63;580.43;;;9.30;99.90;;;;;;5042972;28;20181;-81
2021/12/28 04:48:30;;;;;;;638.33;585.87;;;9.30;99.90;;;;;;5044821;28;20178;-80
2021/12/28 04:50:56;;;;;;;637.90;585.70;;;9.30;99.90;;;;;;5060863;28;20177;-80
2021/12/28 04:53:22;;;;;;;661.50;607.17;;;9.30;99.90;;;;;;5029106;28;20535;-81
2021/12/28 04:55:50;;;;;;;664.57;609.90;;;9.40;99.90;;;;;;5078553;28;20211;-82
2021/12/28 04:58:16;;;;;;;665.57;611.13;;;9.40;99.90;;;;;;5076739;28;20685;-80
2021/12/28 05:00:43;;;;;;;669.07;613.97;;;9.40;99.90;;;;;;5045212;28;20192;-81
2021/12/28 05:03:09;;;;;;;668.93;613.67;;;9.40;99.90;;;;;;5076151;28;20236;-81
2021/12/28 05:05:38;;;;;;;662.73;608.00;;;9.40;99.90;;;;;;5058517;28;20209;-81
2021/12/28 05:08:06;;;;;;;672.80;617.93;;;9.50;99.90;;;;;;5056150;28;20181;-81
2021/12/28 05:10:32;;;;;;;672.83;618.83;;;9.50;99.90;;;;;;5078654;28;20189;-80
2021/12/28 05:12:58;;;;;;;676.03;621.97;;;9.50;99.90;;;;;;5078352;28;20201;-81
2021/12/28 05:15:24;;;;;;;671.53;616.90;;;9.50;99.90;;;;;;5042922;28;20346;-81
2021/12/28 05:17:50;;;;;;;684.23;630.23;;;9.50;99.90;;;;;;5062077;28;20737;-81
2021/12/28 05:20:16;;;;;;;673.70;619.80;;;9.50;99.90;;;;;;5060502;28;20196;-80
2021/12/28 05:22:41;;;;;;;663.00;609.23;;;9.50;99.90;;;;;;5021658;28;20206;-81
2021/12/28 05:25:08;;;;;;;674.93;620.20;;;9.50;99.90;;;;;;5047896;28;20181;-83
2021/12/28 05:27:34;;;;;;;671.83;617.83;;;9.50;99.90;;;;;;5076583;28;20251;-81
2021/12/28 05:30:00;;;;;;;674.07;619.30;;;9.50;99.90;;;;;;5038700;28;20760;-80
2021/12/28 05:32:26;;;;;;;676.27;622.30;;;9.50;99.90;;;;;;5044205;28;20550;-81
2021/12/28 05:34:51;;;;;;;677.90;623.53;;;9.50;99.90;;;;;;5030539;28;20189;-82
2021/12/28 05:37:17;;;;;;;677.03;623.13;;;9.50;99.90;;;;;;5042914;28;20196;-80
2021/12/28 05:39:43;;;;;;;683.80;630.03;;;9.50;99.90;;;;;;5044076;28;20189;-80
2021/12/28 05:42:09;;;;;;;683.03;630.03;;;9.50;99.90;;;;;;5060711;28;20232;-80
2021/12/28 05:44:35;;;;;;;684.87;631.00;;;9.50;99.90;;;;;;5055953;28;20288;-81
2021/12/28 05:47:00;;;;;;;691.70;638.37;;;9.50;99.90;;;;;;5059950;28;20194;-80
2021/12/28 05:49:26;;;;;;;680.27;626.37;;;9.50;99.90;;;;;;5045134;28;20185;-80
2021/12/28 05:51:52;;;;;;;683.13;630.13;;;9.50;99.90;;;;;;5044662;28;20195;-81
2021/12/28 05:54:18;;;;;;;676.50;623.00;;;9.50;99.90;;;;;;5060964;28;20630;-81
2021/12/28 05:56:45;;;;;;;666.47;613.17;;;9.50;99.90;;;;;;5060341;28;20216;-80
2021/12/28 05:59:11;;;;;;;666.70;613.73;;;9.50;99.90;;;;;;5061919;28;20177;-81
2021/12/28 06:01:38;;;;;;;667.10;613.90;;;9.50;99.90;;;;;;5026808;28;20693;-82
2021/12/28 06:04:04;;;;;;;675.20;621.43;;;9.50;99.90;;;;;;5074707;28;20220;-81
2021/12/28 06:06:30;;;;;;;674.80;621.50;;;9.50;99.90;;;;;;5044297;28;20216;-80
2021/12/28 06:08:56;;;;;;;674.47;620.83;;;9.60;99.90;;;;;;5061609;28;20220;-81
2021/12/28 06:11:22;;;;;;;686.97;633.30;;;9.50;99.90;;;;;;5061263;28;20173;-80
2021/12/28 06:13:48;;;;;;;684.80;631.33;;;9.50;99.90;;;;;;5045400;28;20193;-81
2021/12/28 06:16:15;;;;;;;668.17;615.43;;;9.50;99.90;;;;;;5060737;28;20220;-81
2021/12/28 06:18:40;;;;;;;665.93;613.03;;;9.60;99.90;;;;;;5060323;28;20365;-81
2021/12/28 06:21:07;;;;;;;668.90;615.43;;;9.50;99.90;;;;;;5060591;28;20309;-81
2021/12/28 06:23:33;;;;;;;682.03;628.23;;;9.50;99.90;;;;;;5062913;28;20324;-81
2021/12/28 06:25:59;;;;;;;677.10;623.53;;;9.60;99.90;;;;;;5061206;28;20193;-80
2021/12/28 06:28:25;;;;;;;672.73;619.10;;;9.60;99.90;;;;;;5060830;28;20225;-80
2021/12/28 06:30:53;;;;;;;670.70;616.93;;;9.50;99.90;;;;;;5060658;28;20177;-81
2021/12/28 06:33:20;;;;;;;672.07;618.43;;;9.60;99.90;;;;;;5060129;28;20181;-80
2021/12/28 06:35:46;;;;;;;673.00;619.00;;;9.60;99.90;;;;;;5043585;28;20220;-80
2021/12/28 06:38:13;;;;;;;667.50;612.70;;;9.50;99.90;;;;;;5045361;28;20193;-80
2021/12/28 06:40:39;;;;;;;663.47;608.57;;;9.50;99.90;;;;;;5061210;28;20181;-81
2021/12/28 06:43:05;;;;;;;672.90;617.57;;;9.50;99.90;;;;;;5043338;28;20712;-81
2021/12/28 06:45:30;;;;;;;686.80;631.17;;;9.50;99.90;;;;;;5026906;28;20193;-81
2021/12/28 06:47:56;;;;;;;684.43;628.47;;;9.50;99.90;;;;;;5060838;28;20327;-81
2021/12/28 06:50:22;;;;;;;679.23;622.63;;;9.50;99.90;;;;;;5042876;28;20253;-80
2021/12/28 06:52:47;;;;;;;682.83;626.47;;;9.50;99.90;;;;;;5026528;28;20279;-81
2021/12/28 06:55:13;;;;;;;685.13;629.17;;;9.50;99.90;;;;;;5046673;28;20689;-81
2021/12/28 06:57:39;;;;;;;679.07;623.00;;;9.50;99.90;;;;;;5058073;28;20730;-80
2021/12/28 07:00:08;;;;;;;677.93;621.30;;;9.60;99.90;;;;;;5060651;28;20634;-82
2021/12/28 07:02:34;;;;;;;675.40;619.57;;;9.60;99.90;;;;;;5059384;28;20196;-81
2021/12/28 07:05:00;;;;;;;667.97;612.33;;;9.60;99.90;;;;;;5043209;28;20517;-82
2021/12/28 07:07:25;;;;;;;677.63;621.63;;;9.60;99.90;;;;;;5061222;28;20299;-82
2021/12/28 07:09:51;;;;;;;672.03;616.07;;;9.60;99.90;;;;;;5044391;28;20188;-81
2021/12/28 07:12:17;;;;;;;676.77;621.07;;;9.60;99.90;;;;;;5044018;28;20288;-81
2021/12/28 07:14:42;;;;;;;683.23;627.93;;;9.60;99.90;;;;;;5029054;28;20221;-82
2021/12/28 07:17:08;;;;;;;679.23;624.40;;;9.60;99.90;;;;;;5027499;28;20584;-79
2021/12/28 07:19:34;;;;;;;669.67;614.77;;;9.60;99.90;;;;;;5044819;28;20224;-81
2021/12/28 07:22:00;;;;;;;684.70;629.70;;;9.60;99.90;;;;;;5044915;28;20345;-79
2021/12/28 07:24:26;;;;;;;672.70;618.23;;;9.60;99.90;;;;;;5043342;28;20185;-81
2021/12/28 07:26:52;;;;;;;687.30;632.20;;;9.60;99.90;;;;;;5024823;28;20226;-81
2021/12/28 07:29:18;;;;;;;677.10;622.20;;;9.60;99.90;;;;;;5041697;28;20174;-81
2021/12/28 07:31:43;;;;;;;673.87;618.20;;;9.60;99.90;;;;;;5055853;28;20693;-80
2021/12/28 07:34:12;;;;;;;676.73;621.63;;;9.60;99.90;;;;;;5042525;28;20260;-81
2021/12/28 07:36:37;;;;;;;665.73;610.77;;;9.60;99.90;;;;;;5041591;28;20185;-80
2021/12/28 07:39:05;;;;;;;672.13;616.50;;;9.60;99.90;;;;;;5056474;28;20210;-81
2021/12/28 07:41:31;;;;;;;668.87;613.37;;;9.60;99.90;;;;;;5057518;28;20289;-81
2021/12/28 07:43:57;;;;;;;677.77;622.47;;;9.60;99.90;;;;;;5058553;28;20244;-81
2021/12/28 07:46:23;;;;;;;673.77;617.67;;;9.60;99.90;;;;;;5058556;28;20721;-81
2021/12/28 07:48:49;;;;;;;674.87;618.70;;;9.70;99.90;;;;;;5057200;28;20266;-80
2021/12/28 07:51:14;;;;;;;665.13;609.90;;;9.70;99.90;;;;;;5055715;28;20220;-81
2021/12/28 07:53:40;;;;;;;666.83;611.43;;;9.60;99.90;;;;;;5042002;28;20262;-82
2021/12/28 07:56:06;;;;;;;655.83;600.90;;;9.70;99.90;;;;;;5043606;28;20204;-81
2021/12/28 07:58:32;;;;;;;673.80;618.90;;;9.70;99.90;;;;;;5044793;28;20210;-81
2021/12/28 08:00:58;;;;;;;652.77;598.53;;;9.70;99.90;;;;;;5045302;28;20198;-79
2021/12/28 08:03:25;;;;;;;657.07;601.90;;;9.60;99.90;;;;;;5042963;28;20238;-80
2021/12/28 08:05:51;;;;;;;654.27;599.73;;;9.70;99.90;;;;;;5059125;28;20779;-80
2021/12/28 08:08:19;;;;;;;657.80;603.80;;;9.70;99.90;;;;;;5060713;28;20265;-80
2021/12/28 08:10:45;;;;;;;648.70;594.97;;;9.70;99.90;;;;;;5060080;28;20218;-80
2021/12/28 08:13:12;;;;;;;652.40;598.70;;;9.70;99.90;;;;;;5044424;28;20233;-81
2021/12/28 08:15:39;;;;;;;657.83;604.03;;;9.70;99.90;;;;;;5062568;28;20562;-79
2021/12/28 08:18:09;;;;;;;673.80;619.50;;;9.70;99.90;;;;;;5061694;28;20186;-80
2021/12/28 08:20:36;;;;;;;654.80;600.60;;;9.70;99.90;;;;;;5030940;28;20208;-81
2021/12/28 08:23:02;;;;;;;659.93;605.63;;;9.70;99.90;;;;;;5059911;28;20705;-80
2021/12/28 08:25:28;;;;;;;664.83;610.47;;;9.70;99.90;;;;;;5044393;28;20237;-81
2021/12/28 08:27:53;;;;;;;655.30;600.97;;;9.70;99.90;;;;;;5058063;28;20920;-81
2021/12/28 08:30:20;;;;;;;650.57;596.50;;;9.80;99.90;;;;;;5059638;28;20244;-81
2021/12/28 08:32:47;;;;;;;653.93;599.83;;;9.80;99.90;;;;;;5060679;28;20653;-83
2021/12/28 08:35:13;;;;;;;648.93;595.20;;;9.80;99.90;;;;;;5058213;28;20269;-81
2021/12/28 08:37:40;;;;;;;655.27;601.17;;;9.80;99.90;;;;;;5058610;28;20682;-81
2021/12/28 08:40:08;;;;;;;655.37;601.30;;;9.80;99.90;;;;;;5058969;28;20187;-82
2021/12/28 08:42:34;;;;;;;657.70;603.60;;;9.80;99.90;;;;;;5027616;28;20209;-80
2021/12/28 08:45:00;;;;;;;656.47;602.93;;;9.80;99.90;;;;;;5043349;28;20213;-82
2021/12/28 08:47:27;;;;;;;661.23;608.03;;;9.80;99.90;;;;;;5040110;28;20536;-82
2021/12/28 08:49:58;;;;;;;650.27;597.07;;;9.80;99.90;;;;;;5039064;28;20694;-81
2021/12/28 08:52:25;;;;;;;651.20;598.13;;;9.90;99.90;;;;;;5057188;28;20183;-81
2021/12/28 08:54:51;;;;;;;653.87;600.53;;;9.90;99.90;;;;;;5026556;28;20186;-80
2021/12/28 08:57:21;;;;;;;654.07;600.97;;;9.90;99.90;;;;;;5055103;28;20263;-82
2021/12/28 08:59:47;;;;;;;661.37;608.47;;;9.90;99.90;;;;;;5039742;28;20198;-81
2021/12/28 09:02:13;;;;;;;654.33;601.53;;;9.90;99.90;;;;;;5055931;28;20220;-81
2021/12/28 09:04:43;;;;;;;662.83;610.23;;;10.00;99.90;;;;;;5054811;28;20282;-81
2021/12/28 09:07:18;;;;;;;670.20;617.70;;;10.00;99.90;;;;;;5059977;28;20186;-82
2021/12/28 09:09:45;;;;;;;662.00;609.77;;;10.10;99.90;;;;;;5058347;28;20185;-80
2021/12/28 09:12:12;;;;;;;659.93;608.23;;;10.10;99.90;;;;;;5039611;28;20206;-80
2021/12/28 09:14:39;;;;;;;657.90;606.30;;;10.10;99.90;;;;;;5041417;28;20186;-81
2021/12/28 09:17:05;;;;;;;653.70;601.73;;;10.10;99.90;;;;;;5038594;28;20554;-82
2021/12/28 09:19:31;;;;;;;650.53;599.83;;;10.10;99.90;;;;;;5056221;28;20185;-81
2021/12/28 09:21:58;;;;;;;637.27;586.50;;;10.10;99.90;;;;;;5042262;28;20561;-81
2021/12/28 09:24:24;;;;;;;635.87;584.97;;;10.10;99.90;;;;;;5058306;28;20290;-81
2021/12/28 09:26:50;;;;;;;636.87;586.87;;;10.10;99.90;;;;;;5060214;28;20801;-81
2021/12/28 09:29:15;;;;;;;632.63;582.17;;;10.20;99.90;;;;;;5042519;28;20190;-81
2021/12/28 09:31:41;;;;;;;618.40;569.13;;;10.20;99.90;;;;;;5057798;28;20224;-81
2021/12/28 09:34:07;;;;;;;615.63;566.43;;;10.20;99.90;;;;;;5059586;28;20225;-81
2021/12/28 09:36:33;;;;;;;486.80;448.40;;;10.30;99.90;;;;;;5061230;28;20190;-82
2021/12/28 09:38:59;;;;;;;473.33;436.53;;;10.30;99.90;;;;;;5023583;28;20287;-82
2021/12/28 09:41:24;;;;;;;468.77;432.27;;;10.30;99.90;;;;;;5042336;28;20261;-81
2021/12/28 09:43:50;;;;;;;471.97;435.60;;;10.30;99.90;;;;;;5062086;28;20205;-80
2021/12/28 09:46:16;;;;;;;457.50;422.73;;;10.30;99.90;;;;;;5040413;28;20178;-81
2021/12/28 09:48:42;;;;;;;454.47;420.13;;;10.30;99.90;;;;;;5042360;28;20217;-82
2021/12/28 09:51:08;;;;;;;441.50;407.90;;;10.30;99.90;;;;;;5057546;28;20250;-81
2021/12/28 09:53:35;;;;;;;432.27;399.73;;;10.30;99.90;;;;;;5058773;28;20200;-80
2021/12/28 09:56:02;;;;;;;432.43;400.47;;;10.30;99.90;;;;;;5040913;28;20188;-81
2021/12/28 09:58:27;;;;;;;451.53;417.63;;;10.40;99.90;;;;;;5041683;28;20221;-81
2021/12/28 10:00:53;;;;;;;497.03;459.10;;;10.30;99.90;;;;;;5060048;28;20552;-81
2021/12/28 10:03:19;;;;;;;543.80;501.47;;;10.30;99.90;;;;;;5061900;28;21001;-82
2021/12/28 10:05:45;;;;;;;648.10;596.30;;;10.30;99.90;;;;;;5055774;28;20199;-82
2021/12/28 10:08:13;;;;;;;660.60;608.27;;;10.30;99.90;;;;;;5039978;28;20193;-81
2021/12/28 10:10:43;;;;;;;646.20;594.30;;;10.30;99.90;;;;;;5040426;28;20197;-81
2021/12/28 10:13:20;;;;;;;658.97;606.27;;;10.20;99.90;;;;;;5055646;28;20355;-80
2021/12/28 10:15:48;;;;;;;676.13;623.73;;;10.20;99.90;;;;;;5052400;28;20755;-82
2021/12/28 10:18:14;;;;;;;683.80;631.40;;;10.20;99.90;;;;;;5052205;28;20255;-81
2021/12/28 10:20:46;;;;;;;658.80;606.23;;;10.30;99.90;;;;;;5036205;28;20212;-80
2021/12/28 10:23:19;;;;;;;661.70;609.27;;;10.30;99.90;;;;;;5053583;28;20247;-82
2021/12/28 10:25:49;;;;;;;661.63;609.33;;;10.20;99.90;;;;;;5049456;28;20559;-82
2021/12/28 10:28:17;;;;;;;654.60;602.13;;;10.30;99.90;;;;;;5052381;28;20889;-82
2021/12/28 10:30:49;;;;;;;662.53;610.07;;;10.20;99.90;;;;;;5048648;28;20809;-81
2021/12/28 10:33:21;;;;;;;659.13;606.83;;;10.20;99.90;;;;;;5026066;28;20205;-81
2021/12/28 10:35:48;;;;;;;651.13;598.83;;;10.20;99.90;;;;;;5070144;28;20276;-81
2021/12/28 10:38:20;;;;;;;644.20;592.60;;;10.20;99.90;;;;;;5053386;28;20697;-80
2021/12/28 10:40:49;;;;;;;660.23;608.43;;;10.30;99.90;;;;;;5052141;28;20217;-81
2021/12/28 10:43:18;;;;;;;661.60;609.57;;;10.30;99.90;;;;;;5056826;28;20236;-82
2021/12/28 10:45:49;;;;;;;660.77;608.67;;;10.30;99.90;;;;;;5052638;28;20639;-81
2021/12/28 10:48:21;;;;;;;658.83;607.40;;;10.30;99.90;;;;;;5053600;28;20182;-80
2021/12/28 10:50:55;;;;;;;658.23;606.87;;;10.30;99.90;;;;;;5051632;28;20285;-81
2021/12/28 10:53:34;;;;;;;643.70;592.10;;;10.30;99.90;;;;;;5056181;28;20213;-82
2021/12/28 10:56:00;;;;;;;649.03;597.33;;;10.30;99.90;;;;;;5053404;28;20189;-81
2021/12/28 10:58:35;;;;;;;657.90;605.43;;;10.20;99.90;;;;;;5054869;28;20329;-83
2021/12/28 11:01:22;;;;;;;653.37;601.43;;;10.20;99.90;;;;;;5055305;28;20198;-82
2021/12/28 11:03:51;;;;;;;662.23;609.43;;;10.20;99.90;;;;;;5055052;28;20225;-81
2021/12/28 11:06:23;;;;;;;659.10;606.97;;;10.20;99.90;;;;;;5058537;28;20189;-82
2021/12/28 11:08:53;;;;;;;662.13;609.67;;;10.20;99.90;;;;;;5053030;28;20197;-82
2021/12/28 11:11:22;;;;;;;658.73;606.57;;;10.20;99.90;;;;;;5055234;28;20236;-81
2021/12/28 11:13:49;;;;;;;655.37;602.77;;;10.20;99.90;;;;;;5056065;28;20324;-81
2021/12/28 11:16:15;;;;;;;644.63;592.13;;;10.10;99.90;;;;;;5056662;28;20213;-82
2021/12/28 11:18:46;;;;;;;645.70;593.00;;;10.10;99.90;;;;;;5058816;28;20265;-81
2021/12/28 11:21:16;;;;;;;661.40;608.73;;;10.10;99.90;;;;;;5061564;28;20312;-82
2021/12/28 11:23:44;;;;;;;640.83;588.17;;;10.10;99.90;;;;;;5047957;28;20220;-82
2021/12/28 11:26:17;;;;;;;644.93;592.63;;;10.10;99.90;;;;;;5044885;28;20276;-83
2021/12/28 11:29:11;;;;;;;635.17;582.67;;;10.10;99.90;;;;;;5082139;28;20643;-82
2021/12/28 11:31:42;;;;;;;633.47;581.20;;;10.10;99.90;;;;;;5064010;28;20245;-81
2021/12/28 11:34:30;;;;;;;625.30;573.00;;;10.10;99.90;;;;;;5063063;28;20192;-81
2021/12/28 11:37:04;;;;;;;633.33;581.37;;;10.10;99.90;;;;;;5061881;28;20315;-80
2021/12/28 11:39:36;;;;;;;617.17;565.07;;;10.10;99.90;;;;;;5079396;28;20194;-80
2021/12/28 11:42:03;;;;;;;627.10;574.47;;;10.10;99.90;;;;;;5082611;28;20201;-81
2021/12/28 11:44:30;;;;;;;635.53;583.17;;;10.00;99.90;;;;;;5034355;28;20216;-82
2021/12/28 11:46:58;;;;;;;636.83;583.50;;;9.90;99.90;;;;;;5062000;28;20193;-81
2021/12/28 11:49:27;;;;;;;636.70;583.60;;;9.90;99.90;;;;;;5077418;28;20192;-81
2021/12/28 11:51:55;;;;;;;626.73;573.73;;;9.80;99.90;;;;;;5044169;28;20276;-82
2021/12/28 11:54:23;;;;;;;644.50;591.57;;;9.70;99.90;;;;;;5047827;28;20777;-81
2021/12/28 11:57:00;;;;;;;640.60;587.33;;;9.70;99.90;;;;;;5078687;28;20694;-81
2021/12/28 11:59:29;;;;;;;625.90;572.93;;;9.60;99.90;;;;;;5064334;28;20185;-80
2021/12/28 12:02:01;;;;;;;626.63;573.37;;;9.60;99.90;;;;;;5081822;28;20539;-79
2021/12/28 12:04:30;;;;;;;626.40;573.50;;;9.60;99.90;;;;;;5081527;28;20247;-80
2021/12/28 12:07:12;;;;;;;639.03;586.47;;;9.50;99.90;;;;;;5075430;28;20201;-80
2021/12/28 12:09:51;;;;;;;632.80;580.63;;;9.60;99.90;;;;;;5058557;28;20189;-81
2021/12/28 12:12:33;;;;;;;627.23;575.47;;;9.60;99.90;;;;;;5055603;28;20201;-80
2021/12/28 12:14:58;;;;;;;625.60;574.73;;;9.80;99.90;;;;;;5062320;28;20188;-81
2021/12/28 12:17:54;;;;;;;638.47;587.00;;;10.00;99.90;;;;;;5046415;28;20623;-81